Time;durP1;ratioP1;P1;durP2;ratioP2;P2;SDS_P1;SDS_P2;PMS_P1;PMS_P2;Temp;Humidity;BMP_temperature;BMP_pressure;BME280_temperature;BME280_humidity;BME280_pressure;Samples;Min_cycle;Max_cycle;Signal;HPM_P1;HPM_P2
2021/08/22 00:01:09;;;;;;;8.47;7.77;;;20.70;99.90;;;;;;4990619;28;20537;-51
2021/08/22 00:03:35;;;;;;;11.07;8.60;;;20.70;99.90;;;;;;4988268;28;20551;-51
2021/08/22 00:06:00;;;;;;;8.50;7.73;;;20.80;99.90;;;;;;4991143;28;20210;-51
2021/08/22 00:08:26;;;;;;;8.70;8.00;;;20.80;99.90;;;;;;4990451;28;20188;-51
2021/08/22 00:10:52;;;;;;;8.50;7.60;;;20.80;99.90;;;;;;4989026;28;20477;-51
2021/08/22 00:13:19;;;;;;;8.47;7.77;;;20.80;99.90;;;;;;4990965;28;20187;-50
2021/08/22 00:15:46;;;;;;;8.50;7.75;;;20.90;99.90;;;;;;4990368;28;20377;-51
2021/08/22 00:18:12;;;;;;;9.63;7.35;;;20.90;99.90;;;;;;4988433;28;20326;-51
2021/08/22 00:20:38;;;;;;;10.10;7.80;;;21.00;99.90;;;;;;4989639;28;20187;-51
2021/08/22 00:23:04;;;;;;;10.15;8.05;;;21.00;99.90;;;;;;4990346;28;20211;-51
2021/08/22 00:25:30;;;;;;;7.90;7.10;;;21.10;99.90;;;;;;4988185;28;20190;-51
2021/08/22 00:27:56;;;;;;;10.00;6.93;;;21.00;99.90;;;;;;4988262;28;20188;-51
2021/08/22 00:30:22;;;;;;;5.90;5.40;;;21.00;99.90;;;;;;4990574;28;20215;-50
2021/08/22 00:32:47;;;;;;;6.00;5.40;;;20.80;99.90;;;;;;4990745;28;20472;-50
2021/08/22 00:35:13;;;;;;;6.43;5.57;;;20.60;99.90;;;;;;4988443;28;20793;-50
2021/08/22 00:37:40;;;;;;;6.97;4.77;;;20.50;99.90;;;;;;4987032;28;20215;-51
2021/08/22 00:40:06;;;;;;;4.60;4.20;;;20.30;99.90;;;;;;4989301;28;20249;-50
2021/08/22 00:42:33;;;;;;;5.05;4.20;;;20.10;99.90;;;;;;4987918;28;20211;-51
2021/08/22 00:45:09;;;;;;;6.07;4.03;;;19.80;99.90;;;;;;4990432;28;20283;-51
2021/08/22 00:47:45;;;;;;;5.13;3.85;;;19.70;99.90;;;;;;4990095;28;20203;-51
2021/08/22 00:50:13;;;;;;;4.93;4.53;;;19.50;99.90;;;;;;4988538;28;20207;-51
2021/08/22 00:52:39;;;;;;;4.47;3.88;;;19.30;99.90;;;;;;4990767;28;20191;-51
2021/08/22 00:55:06;;;;;;;3.60;3.30;;;19.10;99.90;;;;;;4990514;28;20246;-51
2021/08/22 00:57:34;;;;;;;4.00;3.60;;;19.10;99.90;;;;;;4982246;28;20299;-51
2021/08/22 01:00:08;;;;;;;3.28;2.97;;;19.00;99.90;;;;;;4984209;28;20649;-51
2021/08/22 01:02:39;;;;;;;6.90;3.28;;;18.90;99.90;;;;;;4983306;28;20246;-51
2021/08/22 01:05:23;;;;;;;5.35;3.88;;;18.80;99.90;;;;;;4989655;28;20180;-50
2021/08/22 01:07:54;;;;;;;3.83;3.42;;;18.90;99.90;;;;;;4985216;28;20314;-51
2021/08/22 01:10:25;;;;;;;3.70;3.40;;;18.80;99.90;;;;;;4988968;28;20211;-51
2021/08/22 01:13:05;;;;;;;3.88;3.42;;;18.80;99.90;;;;;;4985564;28;20194;-51
2021/08/22 01:15:43;;;;;;;6.10;3.40;;;18.90;99.90;;;;;;4993686;28;20551;-52
2021/08/22 01:18:13;;;;;;;5.47;3.85;;;19.00;99.90;;;;;;4991621;28;20201;-51
2021/08/22 01:21:04;;;;;;;3.88;3.58;;;18.90;99.90;;;;;;4992909;28;20198;-52
2021/08/22 01:23:32;;;;;;;6.80;3.15;;;18.80;99.90;;;;;;4992026;28;20250;-51
2021/08/22 01:25:59;;;;;;;4.35;3.50;;;18.80;99.90;;;;;;4992282;28;20253;-51
2021/08/22 01:28:25;;;;;;;4.05;3.30;;;18.80;99.90;;;;;;4987970;28;20200;-51
2021/08/22 01:30:55;;;;;;;3.60;3.28;;;18.80;99.90;;;;;;4989689;28;20179;-51
2021/08/22 01:33:21;;;;;;;3.55;3.25;;;18.90;99.90;;;;;;4989253;28;20191;-51
2021/08/22 01:35:47;;;;;;;4.40;3.00;;;18.90;99.90;;;;;;4991691;28;20278;-52
2021/08/22 01:38:15;;;;;;;3.60;3.30;;;19.00;99.90;;;;;;4992366;28;20191;-52
2021/08/22 01:40:41;;;;;;;3.40;3.00;;;19.00;99.90;;;;;;4990844;28;20213;-52
2021/08/22 01:43:07;;;;;;;3.95;3.65;;;19.00;99.90;;;;;;4993315;28;20229;-52
2021/08/22 01:45:34;;;;;;;4.75;4.07;;;18.70;99.90;;;;;;4990589;28;20199;-52
2021/08/22 01:48:00;;;;;;;5.35;4.10;;;18.60;99.90;;;;;;4993206;28;20207;-52
2021/08/22 01:50:26;;;;;;;3.92;3.60;;;18.50;99.90;;;;;;4989819;28;20199;-52
2021/08/22 01:52:56;;;;;;;3.75;3.42;;;18.60;99.90;;;;;;4993639;28;20274;-52
2021/08/22 01:55:22;;;;;;;4.10;3.80;;;18.60;99.90;;;;;;4991853;28;20175;-52
2021/08/22 01:57:48;;;;;;;4.77;4.27;;;18.60;99.90;;;;;;4982129;28;20230;-52
2021/08/22 02:00:14;;;;;;;4.00;3.60;;;18.50;99.90;;;;;;4992002;28;20524;-52
2021/08/22 02:02:51;;;;;;;4.30;3.88;;;18.50;99.90;;;;;;4993284;28;20207;-52
2021/08/22 02:05:18;;;;;;;4.15;3.72;;;18.60;99.90;;;;;;4989278;28;20560;-52
2021/08/22 02:07:44;;;;;;;5.05;3.90;;;18.60;99.90;;;;;;4992938;28;20207;-51
2021/08/22 02:10:28;;;;;;;4.38;3.85;;;18.60;99.90;;;;;;4992487;28;20229;-51
2021/08/22 02:12:59;;;;;;;4.35;3.95;;;18.60;99.90;;;;;;4987869;28;20184;-51
2021/08/22 02:15:40;;;;;;;4.90;4.43;;;18.40;99.90;;;;;;4992257;28;20190;-51
2021/08/22 02:18:12;;;;;;;3.97;3.67;;;18.30;99.90;;;;;;4988713;28;20190;-51
2021/08/22 02:20:41;;;;;;;5.85;3.65;;;18.30;99.90;;;;;;4984664;28;20196;-51
2021/08/22 02:23:08;;;;;;;4.40;4.00;;;18.30;99.90;;;;;;4992871;28;20207;-51
2021/08/22 02:25:34;;;;;;;4.25;3.85;;;18.40;99.90;;;;;;4989867;28;20682;-51
2021/08/22 02:28:01;;;;;;;5.45;4.05;;;18.30;99.90;;;;;;4992370;28;20194;-51
2021/08/22 02:30:31;;;;;;;4.30;3.70;;;18.40;99.90;;;;;;4992865;28;20546;-51
2021/08/22 02:32:56;;;;;;;4.38;3.40;;;18.40;99.90;;;;;;4992785;28;20667;-51
2021/08/22 02:35:22;;;;;;;3.17;2.97;;;18.50;99.90;;;;;;4991509;28;20187;-51
2021/08/22 02:37:48;;;;;;;4.27;3.83;;;18.60;99.90;;;;;;4991944;28;20306;-51
2021/08/22 02:40:14;;;;;;;3.87;3.53;;;18.50;99.90;;;;;;4991085;28;20192;-51
2021/08/22 02:42:39;;;;;;;4.70;4.22;;;18.60;99.90;;;;;;4991470;28;20551;-51
2021/08/22 02:45:08;;;;;;;4.97;4.00;;;18.50;99.90;;;;;;4992425;28;20182;-51
2021/08/22 02:47:33;;;;;;;4.25;3.60;;;18.40;99.90;;;;;;4992535;28;20203;-51
2021/08/22 02:49:59;;;;;;;3.97;3.57;;;18.30;99.90;;;;;;4990958;28;20515;-51
2021/08/22 02:52:25;;;;;;;5.57;4.20;;;18.30;99.90;;;;;;4992432;28;20213;-52
2021/08/22 02:54:50;;;;;;;3.90;3.50;;;18.30;99.90;;;;;;4992300;28;20188;-51
2021/08/22 02:57:18;;;;;;;5.43;3.80;;;18.30;99.90;;;;;;4990105;28;20261;-51
2021/08/22 02:59:44;;;;;;;4.97;4.15;;;18.30;99.90;;;;;;4986599;28;20238;-52
2021/08/22 03:02:10;;;;;;;5.33;3.50;;;18.30;99.90;;;;;;4995101;28;20180;-51
2021/08/22 03:04:35;;;;;;;4.00;3.70;;;18.40;99.90;;;;;;4994824;28;20971;-52
2021/08/22 03:07:01;;;;;;;4.70;4.00;;;18.40;99.90;;;;;;4990680;28;20206;-52
2021/08/22 03:09:27;;;;;;;4.22;3.40;;;18.30;99.90;;;;;;4991970;28;20202;-51
2021/08/22 03:11:53;;;;;;;4.63;3.63;;;18.30;99.90;;;;;;4985043;28;20187;-51
2021/08/22 03:14:19;;;;;;;3.93;3.53;;;18.50;99.90;;;;;;4991966;28;20214;-51
2021/08/22 03:16:44;;;;;;;3.77;3.47;;;18.30;99.90;;;;;;4991493;28;20271;-51
2021/08/22 03:19:10;;;;;;;3.73;3.43;;;18.30;99.90;;;;;;4990330;28;20204;-52
2021/08/22 03:21:37;;;;;;;4.20;3.63;;;18.30;99.90;;;;;;4983837;28;20270;-51
2021/08/22 03:24:03;;;;;;;7.47;4.25;;;18.40;99.90;;;;;;4992170;28;20203;-51
2021/08/22 03:26:28;;;;;;;4.80;4.30;;;18.30;99.90;;;;;;4986685;28;20691;-51
2021/08/22 03:28:54;;;;;;;4.47;3.97;;;18.40;99.90;;;;;;4991802;28;20186;-51
2021/08/22 03:31:20;;;;;;;4.40;4.00;;;18.50;99.90;;;;;;4991687;28;20238;-51
2021/08/22 03:33:46;;;;;;;5.43;3.93;;;18.50;99.90;;;;;;4990117;28;20535;-52
2021/08/22 03:36:12;;;;;;;5.33;3.87;;;18.50;99.90;;;;;;4990609;28;20578;-51
2021/08/22 03:38:37;;;;;;;3.47;3.17;;;18.50;99.90;;;;;;4990761;28;20183;-50
2021/08/22 03:41:03;;;;;;;3.83;3.53;;;18.40;99.90;;;;;;4989432;28;20470;-50
2021/08/22 03:43:29;;;;;;;4.67;3.67;;;18.40;99.90;;;;;;4991919;28;20700;-52
2021/08/22 03:45:54;;;;;;;4.33;3.93;;;18.40;99.90;;;;;;4991413;28;20416;-51
2021/08/22 03:48:20;;;;;;;3.70;3.30;;;18.50;99.90;;;;;;4990341;28;20645;-51
2021/08/22 03:50:46;;;;;;;4.37;3.67;;;18.50;99.90;;;;;;4990533;28;20190;-51
2021/08/22 03:53:12;;;;;;;4.30;3.87;;;18.40;99.90;;;;;;4991278;28;20192;-51
2021/08/22 03:55:37;;;;;;;4.87;3.67;;;18.40;99.90;;;;;;4987201;28;20247;-50
2021/08/22 03:58:03;;;;;;;5.20;4.23;;;18.50;99.90;;;;;;4990307;28;20728;-51
2021/08/22 04:00:29;;;;;;;3.80;3.50;;;18.50;99.90;;;;;;4990607;28;20226;-51
2021/08/22 04:02:54;;;;;;;4.63;4.23;;;18.50;99.90;;;;;;4990662;28;20466;-51
2021/08/22 04:05:20;;;;;;;4.80;4.27;;;18.40;99.90;;;;;;4990414;28;20649;-51
2021/08/22 04:07:48;;;;;;;4.47;4.03;;;18.50;99.90;;;;;;4990841;28;20298;-51
2021/08/22 04:10:16;;;;;;;4.60;3.88;;;18.40;99.90;;;;;;4990393;28;20535;-50
2021/08/22 04:12:42;;;;;;;4.32;3.90;;;18.40;99.90;;;;;;4990775;28;20238;-51
2021/08/22 04:15:08;;;;;;;4.65;4.20;;;18.50;99.90;;;;;;4989994;28;20263;-51
2021/08/22 04:17:34;;;;;;;5.50;4.85;;;18.50;99.90;;;;;;4989925;28;20214;-51
2021/08/22 04:19:59;;;;;;;5.67;4.83;;;18.40;99.90;;;;;;4989031;28;20282;-51
2021/08/22 04:22:25;;;;;;;4.37;3.97;;;18.40;99.90;;;;;;4990046;28;20635;-51
2021/08/22 04:24:51;;;;;;;6.20;4.77;;;18.40;99.90;;;;;;4990780;28;20183;-51
2021/08/22 04:27:17;;;;;;;4.60;4.20;;;18.40;99.90;;;;;;4985589;28;20214;-51
2021/08/22 04:29:42;;;;;;;4.73;4.33;;;18.40;99.90;;;;;;4990572;28;20190;-51
2021/08/22 04:32:09;;;;;;;4.53;4.13;;;18.40;99.90;;;;;;4984526;28;20274;-52
2021/08/22 04:34:35;;;;;;;4.55;4.10;;;18.40;99.90;;;;;;4988650;28;20187;-51
2021/08/22 04:37:01;;;;;;;4.63;4.23;;;18.40;99.90;;;;;;4981998;28;20208;-51
2021/08/22 04:39:27;;;;;;;7.22;4.53;;;18.40;99.90;;;;;;4989769;28;20449;-52
2021/08/22 04:41:53;;;;;;;4.77;4.37;;;18.50;99.90;;;;;;4983331;28;20191;-52
2021/08/22 04:44:18;;;;;;;5.37;4.87;;;18.40;99.90;;;;;;4990463;28;20281;-51
2021/08/22 04:46:46;;;;;;;5.80;4.70;;;18.40;99.90;;;;;;4990878;28;20203;-51
2021/08/22 04:49:12;;;;;;;5.07;4.57;;;18.40;99.90;;;;;;4988533;28;20663;-51
2021/08/22 04:51:38;;;;;;;4.32;3.97;;;18.40;99.90;;;;;;4987696;28;20190;-51
2021/08/22 04:54:04;;;;;;;4.57;4.18;;;18.50;99.90;;;;;;4992074;28;20183;-55
2021/08/22 04:56:30;;;;;;;8.17;4.40;;;18.60;99.90;;;;;;4991126;28;20553;-56
2021/08/22 04:58:55;;;;;;;4.03;3.73;;;18.60;99.90;;;;;;4994122;28;20617;-54
2021/08/22 05:01:21;;;;;;;5.90;5.30;;;18.90;99.90;;;;;;4994319;28;20183;-54
2021/08/22 05:03:47;;;;;;;4.70;4.20;;;18.60;99.90;;;;;;4994354;28;20469;-55
2021/08/22 05:06:13;;;;;;;4.10;3.70;;;18.60;99.90;;;;;;4991138;28;20310;-55
2021/08/22 05:08:38;;;;;;;4.60;4.20;;;18.60;99.90;;;;;;4993989;28;20184;-56
2021/08/22 05:11:05;;;;;;;4.80;4.40;;;18.60;99.90;;;;;;4988524;28;20190;-54
2021/08/22 05:13:31;;;;;;;4.53;4.13;;;18.50;99.90;;;;;;4999315;28;20595;-54
2021/08/22 05:15:57;;;;;;;5.43;4.20;;;18.50;99.90;;;;;;4999925;28;20231;-54
2021/08/22 05:18:24;;;;;;;7.50;4.60;;;18.50;99.90;;;;;;4992114;28;20458;-56
2021/08/22 05:20:50;;;;;;;5.20;4.70;;;18.50;99.90;;;;;;4988600;28;20482;-55
2021/08/22 05:23:17;;;;;;;4.88;4.45;;;18.50;99.90;;;;;;4990010;28;20195;-56
2021/08/22 05:25:43;;;;;;;5.35;4.85;;;18.50;99.90;;;;;;4990798;28;20255;-55
2021/08/22 05:28:09;;;;;;;4.65;4.25;;;18.50;99.90;;;;;;4993537;28;20207;-55
2021/08/22 05:30:35;;;;;;;4.70;4.23;;;18.50;99.90;;;;;;4992762;28;20231;-54
2021/08/22 05:33:01;;;;;;;4.75;4.35;;;18.50;99.90;;;;;;4993638;28;20585;-54
2021/08/22 05:35:26;;;;;;;4.73;4.33;;;18.50;99.90;;;;;;4992759;28;20274;-54
2021/08/22 05:37:52;;;;;;;5.60;4.30;;;18.50;99.90;;;;;;4992570;28;20216;-52
2021/08/22 05:40:18;;;;;;;4.50;4.10;;;18.60;99.90;;;;;;4992099;28;20195;-51
2021/08/22 05:42:44;;;;;;;5.47;3.73;;;18.80;99.90;;;;;;4988525;28;20892;-52
2021/08/22 05:45:10;;;;;;;4.67;4.27;;;18.90;99.90;;;;;;4993627;28;20198;-51
2021/08/22 05:47:36;;;;;;;5.07;4.57;;;19.00;99.90;;;;;;4990010;28;20210;-52
2021/08/22 05:50:04;;;;;;;3.97;3.67;;;19.00;99.90;;;;;;4984380;28;20176;-52
2021/08/22 05:52:33;;;;;;;4.57;4.18;;;19.10;99.90;;;;;;4992874;28;20631;-52
2021/08/22 05:54:59;;;;;;;6.50;3.75;;;19.20;99.90;;;;;;4993572;28;20210;-52
2021/08/22 05:57:25;;;;;;;4.87;4.27;;;19.20;99.90;;;;;;4990616;28;20695;-53
2021/08/22 05:59:50;;;;;;;4.87;3.90;;;19.30;99.90;;;;;;4993228;28;21560;-52
2021/08/22 06:02:16;;;;;;;4.30;4.00;;;19.40;99.90;;;;;;4990955;28;20215;-52
2021/08/22 06:04:42;;;;;;;4.27;3.87;;;19.50;99.90;;;;;;4992800;28;20211;-53
2021/08/22 06:07:07;;;;;;;5.80;3.90;;;19.60;99.90;;;;;;4986385;28;20214;-52
2021/08/22 06:09:33;;;;;;;5.67;4.63;;;19.70;99.90;;;;;;4993010;28;20668;-52
2021/08/22 06:12:00;;;;;;;5.03;4.07;;;19.90;99.90;;;;;;4988339;28;20558;-52
2021/08/22 06:14:26;;;;;;;4.95;4.30;;;20.10;99.90;;;;;;4992998;28;20529;-53
2021/08/22 06:16:52;;;;;;;4.70;4.30;;;20.10;99.90;;;;;;4993054;28;20211;-53
2021/08/22 06:19:17;;;;;;;5.50;4.43;;;20.20;99.90;;;;;;4990422;28;20196;-53
2021/08/22 06:21:43;;;;;;;4.90;4.20;;;20.20;99.90;;;;;;4993098;28;20195;-53
2021/08/22 06:24:09;;;;;;;4.60;4.07;;;20.20;99.90;;;;;;4992710;28;20730;-53
2021/08/22 06:26:34;;;;;;;4.70;4.30;;;20.30;99.90;;;;;;4988752;28;20766;-53
2021/08/22 06:29:00;;;;;;;5.00;4.50;;;20.40;99.90;;;;;;4992538;28;20187;-53
2021/08/22 06:31:26;;;;;;;6.40;4.43;;;20.40;99.90;;;;;;4990864;28;20260;-53
2021/08/22 06:33:51;;;;;;;5.37;3.90;;;20.60;99.90;;;;;;4991469;28;20275;-52
2021/08/22 06:36:17;;;;;;;4.80;4.40;;;20.70;99.90;;;;;;4992423;28;20307;-53
2021/08/22 06:38:43;;;;;;;4.83;4.43;;;20.80;99.90;;;;;;4991026;28;20191;-52
2021/08/22 06:41:09;;;;;;;4.47;4.13;;;20.80;99.90;;;;;;4990438;28;20199;-53
2021/08/22 06:43:35;;;;;;;4.70;4.30;;;20.80;99.90;;;;;;4987366;28;20250;-53
2021/08/22 06:46:00;;;;;;;5.10;4.70;;;20.70;99.90;;;;;;4992318;28;20455;-53
2021/08/22 06:48:26;;;;;;;5.30;4.80;;;20.70;99.90;;;;;;4990805;28;20188;-53
2021/08/22 06:50:52;;;;;;;6.00;4.80;;;20.80;99.90;;;;;;4989319;28;20205;-53
2021/08/22 06:53:18;;;;;;;4.93;4.50;;;20.70;99.90;;;;;;4992227;28;20246;-53
2021/08/22 06:55:44;;;;;;;4.83;4.43;;;20.70;99.90;;;;;;4987636;28;20658;-52
2021/08/22 06:58:09;;;;;;;5.20;4.70;;;20.80;99.90;;;;;;4989923;28;20203;-53
2021/08/22 07:00:35;;;;;;;5.13;4.43;;;20.90;99.90;;;;;;4991484;28;20529;-52
2021/08/22 07:03:01;;;;;;;4.40;4.00;;;21.00;99.90;;;;;;4991436;28;20211;-53
2021/08/22 07:05:27;;;;;;;4.43;4.03;;;21.10;99.90;;;;;;4987081;28;20234;-51
2021/08/22 07:07:54;;;;;;;5.00;4.60;;;21.20;99.90;;;;;;4991656;28;20450;-52
2021/08/22 07:10:19;;;;;;;5.20;4.70;;;21.30;99.90;;;;;;4989579;28;20446;-51
2021/08/22 07:12:45;;;;;;;4.67;4.27;;;21.30;99.90;;;;;;4987050;28;20438;-50
2021/08/22 07:15:14;;;;;;;4.20;3.80;;;21.30;99.90;;;;;;4991478;28;20411;-51
2021/08/22 07:17:40;;;;;;;4.90;4.50;;;21.30;99.90;;;;;;4993097;28;20222;-51
2021/08/22 07:20:06;;;;;;;4.60;4.20;;;21.40;99.90;;;;;;4985931;28;20198;-51
2021/08/22 07:22:32;;;;;;;4.82;4.43;;;21.40;99.90;;;;;;4991651;28;20470;-52
2021/08/22 07:24:59;;;;;;;4.70;4.30;;;21.50;99.90;;;;;;4990432;28;20225;-51
2021/08/22 07:27:27;;;;;;;4.70;4.30;;;21.60;99.90;;;;;;4986965;28;20270;-53
2021/08/22 07:29:53;;;;;;;4.65;4.25;;;21.60;99.90;;;;;;4991891;28;20226;-52
2021/08/22 07:32:18;;;;;;;4.80;4.40;;;21.70;99.90;;;;;;4991233;28;20222;-52
2021/08/22 07:34:44;;;;;;;6.23;4.27;;;21.80;99.90;;;;;;4988454;28;20184;-53
2021/08/22 07:37:10;;;;;;;4.73;4.33;;;21.80;99.90;;;;;;4991333;28;20214;-53
2021/08/22 07:39:36;;;;;;;4.47;4.10;;;21.90;99.90;;;;;;4990563;28;20595;-51
2021/08/22 07:42:02;;;;;;;4.83;4.47;;;21.80;99.90;;;;;;4986858;28;20199;-52
2021/08/22 07:44:28;;;;;;;4.90;4.50;;;21.80;99.90;;;;;;4990619;28;20211;-51
2021/08/22 07:46:54;;;;;;;5.23;4.73;;;21.80;99.90;;;;;;4990753;28;20196;-52
2021/08/22 07:49:20;;;;;;;4.40;4.10;;;21.90;99.90;;;;;;4982578;28;20250;-53
2021/08/22 07:51:49;;;;;;;5.20;4.77;;;22.00;99.90;;;;;;4991292;28;20551;-51
2021/08/22 07:54:14;;;;;;;4.70;4.30;;;22.20;99.90;;;;;;4990609;28;20223;-53
2021/08/22 07:56:41;;;;;;;5.43;4.20;;;22.20;99.90;;;;;;4988451;28;20548;-51
2021/08/22 07:59:07;;;;;;;5.23;4.37;;;22.30;99.90;;;;;;4991087;28;20233;-51
2021/08/22 08:01:34;;;;;;;5.50;5.00;;;22.40;99.90;;;;;;4990598;28;21011;-51
2021/08/22 08:04:00;;;;;;;5.07;4.63;;;22.40;99.90;;;;;;4990461;28;20474;-51
2021/08/22 08:06:25;;;;;;;6.73;4.23;;;22.50;99.90;;;;;;4988970;28;20462;-52
2021/08/22 08:08:51;;;;;;;4.90;4.50;;;22.70;99.90;;;;;;4990963;28;20187;-51
2021/08/22 08:11:17;;;;;;;4.27;3.97;;;23.00;99.90;;;;;;4987876;28;20447;-53
2021/08/22 08:13:43;;;;;;;4.67;4.30;;;23.00;99.90;;;;;;4990928;28;20544;-51
2021/08/22 08:16:08;;;;;;;4.33;3.93;;;23.20;99.90;;;;;;4990292;28;20211;-50
2021/08/22 08:18:34;;;;;;;4.33;4.03;;;23.30;99.90;;;;;;4990106;28;20187;-51
2021/08/22 08:21:02;;;;;;;5.80;4.43;;;23.40;99.90;;;;;;4983081;28;20215;-51
2021/08/22 08:23:27;;;;;;;5.00;4.50;;;23.50;99.90;;;;;;4990376;28;20462;-51
2021/08/22 08:25:53;;;;;;;5.10;4.70;;;23.70;99.90;;;;;;4986160;28;20472;-51
2021/08/22 08:28:19;;;;;;;4.37;3.97;;;24.00;99.90;;;;;;4990552;28;20266;-51
2021/08/22 08:30:45;;;;;;;4.43;4.03;;;24.20;99.90;;;;;;4990279;28;20242;-51
2021/08/22 08:33:11;;;;;;;4.03;3.70;;;24.50;99.90;;;;;;4990577;28;20442;-52
2021/08/22 08:35:37;;;;;;;4.60;4.20;;;24.90;99.90;;;;;;4988500;28;20970;-52
2021/08/22 08:38:03;;;;;;;4.97;4.50;;;25.20;99.90;;;;;;4990970;28;20192;-54
2021/08/22 08:40:29;;;;;;;4.97;4.57;;;25.60;99.90;;;;;;4987520;28;20187;-52
2021/08/22 08:42:58;;;;;;;4.30;4.00;;;25.60;99.90;;;;;;4990461;28;20966;-51
2021/08/22 08:45:47;;;;;;;4.63;4.30;;;25.40;99.80;;;;;;4981280;28;20473;-51
2021/08/22 08:48:20;;;;;;;5.00;4.60;;;25.20;99.90;;;;;;4989319;28;20465;-51
2021/08/22 08:51:05;;;;;;;4.00;3.70;;;25.00;99.90;;;;;;4985125;28;20446;-51
2021/08/22 08:53:45;;;;;;;4.93;4.53;;;24.80;99.90;;;;;;4983850;28;20442;-51
2021/08/22 08:56:12;;;;;;;4.90;4.50;;;24.60;99.90;;;;;;4983715;28;20467;-50
2021/08/22 08:58:37;;;;;;;4.50;4.10;;;24.60;99.90;;;;;;4989032;28;20447;-50
2021/08/22 09:01:03;;;;;;;4.80;4.30;;;24.60;99.90;;;;;;4987959;28;20637;-52
2021/08/22 09:03:29;;;;;;;4.50;4.10;;;24.60;99.90;;;;;;4988396;28;20267;-52
2021/08/22 09:06:45;;;;;;;4.17;3.77;;;24.60;99.90;;;;;;4990149;28;20200;-51
2021/08/22 09:09:39;;;;;;;4.67;4.27;;;24.60;99.90;;;;;;4956945;28;20203;-51
2021/08/22 09:12:04;;;;;;;4.47;4.17;;;24.40;99.90;;;;;;4988871;28;20446;-51
2021/08/22 09:15:07;;;;;;;5.00;4.60;;;24.20;99.90;;;;;;4990649;28;20501;-50
2021/08/22 09:18:09;;;;;;;5.40;4.90;;;24.00;99.90;;;;;;4987140;28;20222;-52
2021/08/22 09:21:13;;;;;;;5.03;4.40;;;24.00;99.90;;;;;;4988980;28;20465;-53
2021/08/22 09:24:09;;;;;;;6.30;4.47;;;24.00;99.90;;;;;;4989305;28;20468;-51
2021/08/22 09:26:59;;;;;;;5.63;5.13;;;24.00;99.90;;;;;;4986253;28;20467;-51
2021/08/22 09:29:52;;;;;;;5.40;5.00;;;24.10;99.90;;;;;;4984347;28;20431;-51
2021/08/22 09:32:56;;;;;;;5.33;4.80;;;24.10;99.90;;;;;;4982133;28;20469;-53
2021/08/22 09:35:59;;;;;;;4.77;4.37;;;24.20;99.90;;;;;;4991750;28;20439;-52
2021/08/22 09:39:02;;;;;;;5.60;4.97;;;24.40;99.90;;;;;;4991938;28;20485;-52
2021/08/22 09:41:46;;;;;;;4.90;4.50;;;24.60;99.90;;;;;;4986160;28;20858;-53
2021/08/22 09:44:49;;;;;;;6.23;4.80;;;24.70;99.90;;;;;;4993752;28;20462;-51
2021/08/22 09:47:41;;;;;;;4.73;4.33;;;24.60;99.90;;;;;;4991552;28;20509;-52
2021/08/22 09:50:47;;;;;;;5.10;4.57;;;24.50;99.90;;;;;;4986563;28;20450;-51
2021/08/22 09:54:09;;;;;;;5.10;4.60;;;24.40;99.90;;;;;;4993137;28;20742;-51
2021/08/22 09:56:58;;;;;;;5.20;4.73;;;24.40;99.90;;;;;;4951104;29;20549;-51
2021/08/22 09:59:52;;;;;;;5.50;5.00;;;24.50;99.90;;;;;;4945612;29;20448;-50
2021/08/22 10:02:45;;;;;;;5.13;4.73;;;24.50;99.90;;;;;;4989296;28;20885;-52
2021/08/22 10:05:17;;;;;;;4.63;4.30;;;24.50;99.90;;;;;;4990588;28;20450;-51
2021/08/22 10:08:30;;;;;;;5.90;4.60;;;24.70;99.90;;;;;;4993390;28;20557;-52
2021/08/22 10:11:02;;;;;;;4.83;4.40;;;24.90;99.90;;;;;;4984137;28;20466;-52
2021/08/22 10:13:30;;;;;;;4.80;4.40;;;24.60;99.90;;;;;;4988356;28;20455;-53
2021/08/22 10:15:56;;;;;;;5.63;5.03;;;24.60;99.90;;;;;;4983522;28;20879;-51
2021/08/22 10:18:23;;;;;;;5.53;5.03;;;24.50;99.90;;;;;;4986347;28;20471;-51
2021/08/22 10:20:49;;;;;;;5.83;5.33;;;24.20;99.90;;;;;;4983004;28;20440;-50
2021/08/22 10:23:47;;;;;;;5.27;4.77;;;24.20;99.90;;;;;;4990371;28;20477;-51
2021/08/22 10:26:48;;;;;;;5.50;4.37;;;24.20;99.90;;;;;;4984883;28;20471;-50
2021/08/22 10:29:22;;;;;;;5.37;4.87;;;24.10;99.90;;;;;;4986477;28;20939;-52
2021/08/22 10:31:50;;;;;;;5.03;4.53;;;23.90;99.90;;;;;;4986473;28;20955;-51
2021/08/22 10:34:16;;;;;;;5.20;4.80;;;23.60;99.90;;;;;;4992742;28;20438;-51
2021/08/22 10:36:42;;;;;;;5.37;4.87;;;23.80;99.90;;;;;;4987628;28;20817;-51
2021/08/22 10:39:30;;;;;;;5.30;4.80;;;23.80;99.90;;;;;;4991376;28;20191;-51
2021/08/22 10:42:18;;;;;;;5.80;5.30;;;23.60;99.90;;;;;;4984543;28;20451;-53
2021/08/22 10:44:44;;;;;;;5.60;5.10;;;23.10;99.90;;;;;;4991519;28;20971;-52
2021/08/22 10:47:11;;;;;;;6.20;5.70;;;22.90;99.90;;;;;;4990993;28;20462;-53
2021/08/22 10:49:55;;;;;;;5.83;5.33;;;23.10;99.90;;;;;;4988918;28;20446;-52
2021/08/22 10:52:31;;;;;;;6.70;4.60;;;23.20;99.90;;;;;;4991771;28;20434;-52
2021/08/22 10:55:06;;;;;;;5.80;5.30;;;23.30;99.90;;;;;;4980090;28;20954;-52
2021/08/22 11:00:25;;;;;;;6.17;5.57;;;23.30;99.90;;;;;;4989915;28;20481;-53
2021/08/22 11:02:52;;;;;;;6.47;5.87;;;23.10;99.90;;;;;;4984516;28;20470;-54
2021/08/22 11:05:20;;;;;;;6.30;5.80;;;22.70;99.90;;;;;;4987956;28;20439;-52
2021/08/22 11:07:48;;;;;;;7.37;6.67;;;22.70;99.90;;;;;;4982288;28;21031;-53
2021/08/22 11:10:14;;;;;;;6.60;5.93;;;22.70;99.90;;;;;;4991082;28;20866;-53
2021/08/22 11:12:41;;;;;;;6.20;5.70;;;22.70;99.90;;;;;;4989965;28;20443;-52
2021/08/22 11:15:08;;;;;;;7.17;6.47;;;22.60;99.90;;;;;;4987924;28;20466;-52
2021/08/22 11:17:34;;;;;;;7.50;6.90;;;22.60;99.90;;;;;;4982489;28;20454;-53
2021/08/22 11:20:08;;;;;;;8.97;6.77;;;22.30;99.90;;;;;;4989149;28;20458;-53
2021/08/22 11:22:34;;;;;;;5.20;4.80;;;22.00;99.90;;;;;;4980363;28;20466;-51
2021/08/22 11:25:00;;;;;;;4.67;4.27;;;22.00;99.90;;;;;;4989310;28;21090;-51
2021/08/22 11:27:28;;;;;;;4.00;2.93;;;21.90;99.90;;;;;;4988301;28;20477;-52
2021/08/22 11:29:55;;;;;;;2.80;2.60;;;21.50;99.90;;;;;;4989824;28;20180;-52
2021/08/22 11:32:20;;;;;;;2.58;2.38;;;21.30;99.90;;;;;;4987748;28;20184;-54
2021/08/22 11:34:46;;;;;;;2.00;1.90;;;21.20;99.90;;;;;;4986091;28;20188;-51
2021/08/22 11:37:16;;;;;;;1.87;1.77;;;21.00;99.90;;;;;;4991196;28;20207;-51
2021/08/22 11:39:42;;;;;;;2.40;2.20;;;21.00;99.90;;;;;;4991147;28;20211;-52
2021/08/22 11:42:09;;;;;;;2.10;2.00;;;21.00;99.90;;;;;;4986732;28;20218;-52
2021/08/22 11:44:34;;;;;;;3.33;2.60;;;20.60;99.90;;;;;;4985626;28;20697;-52
2021/08/22 11:47:01;;;;;;;2.20;2.00;;;20.60;99.90;;;;;;4985922;28;20223;-51
2021/08/22 11:49:27;;;;;;;2.38;2.08;;;20.70;99.90;;;;;;4987255;28;20310;-53
2021/08/22 11:51:55;;;;;;;2.30;2.10;;;20.70;99.90;;;;;;4991002;28;20212;-52
2021/08/22 11:54:22;;;;;;;2.30;2.10;;;20.90;99.90;;;;;;4989026;28;20203;-52
2021/08/22 11:56:48;;;;;;;1.88;1.77;;;20.90;99.90;;;;;;4985839;28;20274;-50
2021/08/22 11:59:27;;;;;;;2.05;1.85;;;20.80;99.90;;;;;;4989660;28;20183;-52
2021/08/22 12:02:19;;;;;;;2.55;2.35;;;20.60;99.90;;;;;;4990625;28;20188;-52
2021/08/22 12:04:46;;;;;;;1.95;1.80;;;20.70;99.90;;;;;;4986567;28;20213;-51
2021/08/22 12:07:12;;;;;;;2.75;2.55;;;20.60;99.90;;;;;;4986139;28;20246;-51
2021/08/22 12:09:48;;;;;;;2.47;1.92;;;20.30;99.90;;;;;;4990767;28;20188;-52
2021/08/22 12:12:21;;;;;;;2.35;2.15;;;20.30;99.90;;;;;;4987099;28;20297;-52
2021/08/22 12:14:46;;;;;;;2.13;1.80;;;20.10;99.90;;;;;;4989062;28;20199;-51
2021/08/22 12:17:23;;;;;;;2.00;1.77;;;20.00;99.90;;;;;;4990977;28;20214;-52
2021/08/22 12:19:49;;;;;;;2.47;2.28;;;20.00;99.90;;;;;;4984120;28;20282;-51
2021/08/22 12:22:15;;;;;;;3.33;3.03;;;20.00;99.90;;;;;;4980104;28;20184;-51
2021/08/22 12:24:46;;;;;;;3.10;2.80;;;20.10;99.90;;;;;;4984398;28;20226;-50
2021/08/22 12:27:11;;;;;;;2.88;2.35;;;20.20;99.90;;;;;;4980703;28;20208;-52
2021/08/22 12:29:39;;;;;;;3.10;2.80;;;20.10;99.90;;;;;;4989650;28;20184;-52
2021/08/22 12:32:13;;;;;;;3.15;2.30;;;19.90;99.90;;;;;;4987486;28;20234;-52
2021/08/22 12:34:40;;;;;;;3.10;2.72;;;20.00;99.90;;;;;;4984652;28;20187;-51
2021/08/22 12:37:17;;;;;;;2.53;2.33;;;19.90;99.90;;;;;;4988808;28;20207;-52
2021/08/22 12:39:43;;;;;;;2.50;2.30;;;19.90;99.90;;;;;;4990295;28;20219;-52
2021/08/22 12:42:16;;;;;;;3.10;2.50;;;19.90;99.90;;;;;;4984203;28;20515;-52
2021/08/22 12:44:41;;;;;;;2.88;2.58;;;20.10;99.90;;;;;;4979559;28;20974;-53
2021/08/22 12:47:07;;;;;;;3.07;2.37;;;20.10;99.90;;;;;;4989320;28;20203;-53
2021/08/22 12:49:36;;;;;;;2.60;2.40;;;20.20;99.90;;;;;;4988022;28;20179;-53
2021/08/22 12:52:09;;;;;;;1.90;1.80;;;20.20;99.90;;;;;;4990292;28;20187;-53
2021/08/22 12:54:35;;;;;;;2.38;1.98;;;20.10;99.90;;;;;;4986894;28;20610;-53
2021/08/22 12:57:02;;;;;;;1.80;1.60;;;20.20;99.90;;;;;;4983922;28;20219;-53
2021/08/22 12:59:28;;;;;;;2.10;1.90;;;20.40;99.90;;;;;;4989486;28;20191;-53
2021/08/22 13:01:54;;;;;;;2.23;1.90;;;20.40;99.90;;;;;;4989859;28;20266;-53